createdAt,value
2019-01-31T00:03:21.569Z,83.60
2019-01-31T00:06:08.272Z,82.80
2019-01-31T00:09:01.356Z,82.10
2019-01-31T00:12:17.852Z,83.30
2019-01-31T00:15:17.735Z,82.10
2019-01-31T00:18:44.456Z,82.80
2019-01-31T00:22:11.508Z,82.40
2019-01-31T00:24:54.901Z,84.50
2019-01-31T00:27:57.916Z,84.00
2019-01-31T00:31:21.052Z,83.60
2019-01-31T00:34:22.954Z,83.10
2019-01-31T00:37:31.608Z,83.70
2019-01-31T00:40:23.447Z,82.20
2019-01-31T00:43:14.681Z,82.40
2019-01-31T00:46:13.492Z,82.50
2019-01-31T00:49:28.100Z,82.00
2019-01-31T00:52:24.344Z,82.60
2019-01-31T00:55:21.948Z,82.40
2019-01-31T00:58:16.639Z,82.00
2019-01-31T01:01:40.157Z,81.90
2019-01-31T01:04:30.832Z,83.70
2019-01-31T01:07:48.465Z,82.90
2019-01-31T01:10:44.670Z,83.80
2019-01-31T01:13:59.581Z,82.70
2019-01-31T01:16:51.424Z,82.20
2019-01-31T01:19:55.724Z,81.70
2019-01-31T01:23:09.684Z,82.70
2019-01-31T01:26:06.626Z,83.10
2019-01-31T01:29:13.732Z,82.50
2019-01-31T01:32:17.914Z,81.70
2019-01-31T01:35:09.801Z,82.00
2019-01-31T01:38:09.151Z,82.10
2019-01-31T01:40:50.900Z,81.10
2019-01-31T01:44:00.492Z,82.30
2019-01-31T01:47:11.503Z,82.40
2019-01-31T01:49:47.473Z,81.70
2019-01-31T01:52:43.236Z,81.90
2019-01-31T01:55:56.789Z,82.40
2019-01-31T01:58:39.016Z,82.00
2019-01-31T02:01:54.316Z,82.90
2019-01-31T02:05:13.139Z,81.60
2019-01-31T02:08:18.595Z,82.00
2019-01-31T02:11:12.776Z,81.80
2019-01-31T02:14:14.925Z,81.60
2019-01-31T02:16:59.873Z,81.70
2019-01-31T02:20:35.296Z,81.50
2019-01-31T02:23:17.572Z,80.90
2019-01-31T02:26:28.755Z,80.80
2019-01-31T02:29:43.307Z,81.00
2019-01-31T02:33:05.988Z,81.30
2019-01-31T02:36:29.932Z,81.80
2019-01-31T02:39:17.179Z,81.10
2019-01-31T02:42:13.119Z,80.60
2019-01-31T02:45:12.777Z,80.30
2019-01-31T02:48:22.916Z,81.40
2019-01-31T02:51:15.315Z,81.10
2019-01-31T02:54:16.776Z,80.00
2019-01-31T02:57:35.232Z,80.40
2019-01-31T03:00:54.212Z,79.80
2019-01-31T03:03:49.905Z,80.10
2019-01-31T03:06:47.602Z,79.20
2019-01-31T03:10:06.696Z,80.00
2019-01-31T03:13:07.137Z,79.20
2019-01-31T03:16:12.797Z,78.70
2019-01-31T03:19:20.893Z,78.60
2019-01-31T03:22:33.735Z,78.30
2019-01-31T03:25:34.360Z,78.30
2019-01-31T03:28:26.842Z,78.80
2019-01-31T03:31:36.911Z,77.70
2019-01-31T03:34:38.288Z,78.30
2019-01-31T03:37:41.000Z,78.70
2019-01-31T03:40:58.490Z,78.30
2019-01-31T03:43:43.360Z,79.20
2019-01-31T03:46:55.267Z,79.20
2019-01-31T03:50:21.655Z,79.90
2019-01-31T03:53:36.052Z,79.70
2019-01-31T03:57:05.411Z,79.20
2019-01-31T03:59:40.908Z,78.80
2019-01-31T04:02:48.829Z,77.80
2019-01-31T04:05:58.951Z,78.30
2019-01-31T04:08:29.523Z,79.50
2019-01-31T04:11:00.141Z,79.80
2019-01-31T04:13:30.767Z,80.10
2019-01-31T04:16:01.393Z,79.20
2019-01-31T04:18:31.973Z,78.60
2019-01-31T04:21:02.763Z,78.80
2019-01-31T04:23:33.375Z,78.80
2019-01-31T04:26:08.524Z,78.40
2019-01-31T04:28:39.471Z,78.50
2019-01-31T04:31:10.778Z,79.00
2019-01-31T04:33:45.320Z,80.10
2019-01-31T04:36:22.657Z,80.10
2019-01-31T04:38:55.268Z,79.50
2019-01-31T04:41:26.005Z,79.20
2019-01-31T04:43:56.708Z,79.00
2019-01-31T04:46:27.316Z,78.70
2019-01-31T04:48:57.938Z,78.80
2019-01-31T04:51:28.571Z,78.40
2019-01-31T04:53:59.236Z,78.80
2019-01-31T04:56:29.841Z,77.70
2019-01-31T04:59:00.467Z,78.80
2019-01-31T05:01:31.644Z,78.30
2019-01-31T05:04:02.175Z,78.80
2019-01-31T05:06:33.148Z,79.30
2019-01-31T05:09:05.263Z,79.90
2019-01-31T05:11:35.888Z,79.50
2019-01-31T05:14:06.692Z,79.50
2019-01-31T05:16:37.273Z,80.00
2019-01-31T05:19:07.807Z,79.70
2019-01-31T05:21:38.360Z,78.50
2019-01-31T05:24:08.991Z,79.30
2019-01-31T05:26:41.662Z,79.60
2019-01-31T05:29:12.821Z,79.50
2019-01-31T05:31:45.260Z,78.80
2019-01-31T05:34:16.583Z,79.50
2019-01-31T05:36:48.007Z,79.90
2019-01-31T05:39:19.837Z,80.30
2019-01-31T05:41:51.056Z,80.40
2019-01-31T05:44:21.764Z,80.80
2019-01-31T05:46:53.517Z,80.90
2019-01-31T05:49:24.266Z,80.00
2019-01-31T05:51:54.826Z,80.80
2019-01-31T05:54:25.476Z,80.90
2019-01-31T05:56:56.112Z,80.20
2019-01-31T05:59:26.700Z,79.50
2019-01-31T06:01:57.326Z,79.40
2019-01-31T06:04:27.870Z,78.90
2019-01-31T06:06:58.384Z,79.40
2019-01-31T06:09:31.404Z,79.50
2019-01-31T06:12:02.270Z,79.60
2019-01-31T06:14:33.207Z,79.50
2019-01-31T06:17:03.871Z,79.70
2019-01-31T06:19:36.104Z,79.70
2019-01-31T06:22:06.808Z,81.30
2019-01-31T06:24:38.489Z,80.50
2019-01-31T06:27:12.727Z,80.50
2019-01-31T06:29:47.531Z,79.00
2019-01-31T06:32:18.152Z,79.50
2019-01-31T06:34:48.799Z,80.10
2019-01-31T06:37:19.328Z,81.00
2019-01-31T06:39:49.868Z,81.70
2019-01-31T06:42:20.470Z,82.10
2019-01-31T06:44:52.135Z,81.20
2019-01-31T06:47:22.726Z,80.50
2019-01-31T06:49:53.331Z,80.10
2019-01-31T06:52:23.929Z,79.90
2019-01-31T06:54:54.518Z,79.60
2019-01-31T06:57:25.117Z,79.70
2019-01-31T06:59:55.725Z,80.20
2019-01-31T07:02:26.335Z,79.70
2019-01-31T07:04:56.864Z,79.20
2019-01-31T07:07:28.127Z,79.50
2019-01-31T07:09:58.877Z,79.80
2019-01-31T07:12:29.941Z,79.00
2019-01-31T07:15:00.459Z,78.50
2019-01-31T07:17:31.073Z,77.70
2019-01-31T07:20:01.710Z,78.00
2019-01-31T07:22:32.248Z,77.30
2019-01-31T07:25:02.881Z,76.90
2019-01-31T07:27:33.501Z,76.90
2019-01-31T07:30:05.001Z,76.80
2019-01-31T07:32:35.698Z,76.70
2019-01-31T07:35:07.841Z,76.10
2019-01-31T07:37:38.384Z,74.90
2019-01-31T07:40:09.979Z,73.80
2019-01-31T07:42:40.484Z,72.50
2019-01-31T07:45:18.512Z,72.30
2019-01-31T07:47:49.169Z,70.40
2019-01-31T07:50:19.949Z,69.30
2019-01-31T07:52:50.585Z,68.60
2019-01-31T07:55:21.299Z,68.50
2019-01-31T07:57:52.980Z,68.40
2019-01-31T08:00:23.688Z,68.00
2019-01-31T08:02:54.628Z,67.80
2019-01-31T08:05:25.235Z,67.20
2019-01-31T08:07:56.700Z,66.80
2019-01-31T08:10:30.360Z,66.50
2019-01-31T08:13:00.873Z,65.00
2019-01-31T08:15:31.530Z,66.00
2019-01-31T08:18:02.240Z,64.90
2019-01-31T08:20:32.849Z,66.30
2019-01-31T08:23:03.420Z,66.50
2019-01-31T08:25:34.109Z,65.20
2019-01-31T08:28:05.544Z,67.00
2019-01-31T08:30:38.207Z,67.10
2019-01-31T08:33:10.179Z,67.50
2019-01-31T08:35:41.930Z,68.90
2019-01-31T08:38:12.469Z,70.10
2019-01-31T08:40:43.045Z,68.50
2019-01-31T08:43:13.680Z,68.20
2019-01-31T08:45:44.246Z,68.90
2019-01-31T08:48:14.956Z,69.80
2019-01-31T08:50:45.609Z,69.70
2019-01-31T08:53:16.176Z,69.80
2019-01-31T08:55:47.606Z,70.40
2019-01-31T08:58:18.400Z,70.30
2019-01-31T09:00:49.054Z,70.50
2019-01-31T09:03:19.662Z,70.80
2019-01-31T09:05:50.221Z,71.10
2019-01-31T09:08:20.846Z,70.90
2019-01-31T09:10:51.491Z,71.20
2019-01-31T09:13:22.093Z,70.80
2019-01-31T09:15:52.697Z,71.20
2019-01-31T09:18:23.263Z,71.60
2019-01-31T09:21:04.178Z,69.60
2019-01-31T09:24:15.933Z,70.30
2019-01-31T09:27:30.340Z,70.10
2019-01-31T09:30:31.241Z,70.20
2019-01-31T09:33:34.340Z,69.40
2019-01-31T09:36:21.458Z,69.80
2019-01-31T09:39:47.883Z,70.30
2019-01-31T09:42:32.651Z,70.80
2019-01-31T09:45:46.445Z,71.50
2019-01-31T09:48:48.138Z,71.20
2019-01-31T09:52:08.014Z,71.30
2019-01-31T09:55:06.993Z,70.90
2019-01-31T09:58:14.079Z,71.80
2019-01-31T10:01:21.133Z,72.30
2019-01-31T10:04:19.640Z,71.90
2019-01-31T10:07:49.217Z,71.70
2019-01-31T10:10:34.116Z,71.30
2019-01-31T10:13:40.600Z,71.70
2019-01-31T10:16:48.145Z,71.20
2019-01-31T10:19:57.677Z,70.90
2019-01-31T10:22:57.058Z,71.00
2019-01-31T10:25:51.928Z,71.00
2019-01-31T10:28:54.967Z,71.40
2019-01-31T10:31:50.748Z,72.20
2019-01-31T10:34:43.466Z,72.80
2019-01-31T10:37:51.189Z,72.90
2019-01-31T10:41:12.584Z,73.10
2019-01-31T10:44:32.057Z,73.30
2019-01-31T10:47:47.520Z,73.40
2019-01-31T10:51:06.529Z,73.50
2019-01-31T10:54:05.401Z,74.40
2019-01-31T10:57:30.937Z,74.20
2019-01-31T11:00:37.735Z,74.80
2019-01-31T11:03:46.776Z,75.40
2019-01-31T11:07:06.368Z,76.60
2019-01-31T11:10:18.218Z,76.40
2019-01-31T11:13:17.466Z,76.40
2019-01-31T11:16:13.285Z,76.50
2019-01-31T11:18:55.182Z,77.20
2019-01-31T11:22:08.817Z,77.70
2019-01-31T11:25:01.032Z,78.20
2019-01-31T11:27:57.688Z,77.80
2019-01-31T11:30:48.172Z,78.00
2019-01-31T11:33:59.666Z,78.10
2019-01-31T11:37:23.105Z,78.00
2019-01-31T11:40:22.114Z,77.90
2019-01-31T11:43:19.844Z,77.80
2019-01-31T11:46:34.253Z,78.10
2019-01-31T11:49:49.901Z,77.90
2019-01-31T11:53:15.901Z,78.30
2019-01-31T11:56:10.353Z,78.60
2019-01-31T11:59:02.579Z,79.30
2019-01-31T12:01:35.261Z,79.30
2019-01-31T12:04:24.037Z,79.30
2019-01-31T12:06:54.596Z,79.70
2019-01-31T12:09:25.142Z,80.00
2019-01-31T12:11:55.886Z,79.40
2019-01-31T12:14:26.448Z,80.40
2019-01-31T12:16:57.109Z,80.40
2019-01-31T12:19:27.692Z,80.70
2019-01-31T12:21:58.389Z,80.90
2019-01-31T12:24:29.037Z,81.10
2019-01-31T12:26:59.565Z,81.50
2019-01-31T12:29:30.097Z,81.80
2019-01-31T12:32:00.657Z,81.90
2019-01-31T12:34:31.355Z,82.00
2019-01-31T12:37:01.965Z,81.90
2019-01-31T12:39:32.618Z,81.90
2019-01-31T12:42:03.873Z,82.10
2019-01-31T12:44:34.509Z,81.70
2019-01-31T12:47:05.425Z,82.10
2019-01-31T12:49:36.084Z,81.80
2019-01-31T12:52:07.740Z,81.80
2019-01-31T12:54:38.356Z,81.70
2019-01-31T12:57:08.921Z,82.10
2019-01-31T12:59:39.535Z,82.10
2019-01-31T13:02:10.192Z,82.10
2019-01-31T13:04:40.885Z,82.20
2019-01-31T13:07:11.522Z,82.70
2019-01-31T13:09:43.592Z,82.30
2019-01-31T13:12:14.250Z,82.70
2019-01-31T13:14:44.956Z,82.60
2019-01-31T13:17:15.612Z,83.30
2019-01-31T13:19:46.471Z,83.70
2019-01-31T13:22:17.149Z,83.50
2019-01-31T13:24:47.752Z,83.30
2019-01-31T13:27:18.438Z,83.80
2019-01-31T13:29:49.025Z,84.40
2019-01-31T13:32:19.807Z,84.60
2019-01-31T13:34:50.425Z,84.80
2019-01-31T13:37:20.978Z,84.60
2019-01-31T13:39:51.732Z,84.90
2019-01-31T13:42:22.334Z,85.10
2019-01-31T13:44:53.188Z,85.20
2019-01-31T13:47:24.188Z,85.50
2019-01-31T13:49:54.752Z,85.80
2019-01-31T13:52:25.338Z,85.90
2019-01-31T13:54:55.899Z,85.50
2019-01-31T13:57:26.456Z,85.50
2019-01-31T13:59:57.072Z,85.50
2019-01-31T14:02:28.670Z,85.70
2019-01-31T14:04:59.212Z,86.10
2019-01-31T14:07:29.817Z,86.00
2019-01-31T14:10:00.365Z,86.30
2019-01-31T14:12:30.896Z,86.00
2019-01-31T14:15:01.500Z,86.60
2019-01-31T14:17:32.203Z,87.00
2019-01-31T14:20:02.833Z,87.10
2019-01-31T14:22:42.782Z,87.00
2019-01-31T14:25:06.468Z,86.90
2019-01-31T14:27:37.091Z,87.00
2019-01-31T14:30:23.299Z,87.80
2019-01-31T14:32:54.084Z,87.90
2019-01-31T14:35:24.616Z,87.90
2019-01-31T14:37:55.350Z,87.90
2019-01-31T14:40:26.436Z,87.90
2019-01-31T14:42:57.012Z,87.70
2019-01-31T14:45:29.998Z,88.30
2019-01-31T14:47:59.970Z,88.40
2019-01-31T14:50:32.237Z,88.40
2019-01-31T14:53:02.884Z,88.80
2019-01-31T14:55:33.395Z,89.10
2019-01-31T14:58:04.356Z,89.90
2019-01-31T15:00:34.966Z,89.00
2019-01-31T15:03:06.256Z,88.90
2019-01-31T15:05:37.044Z,89.20
2019-01-31T15:08:08.221Z,89.10
2019-01-31T15:10:38.889Z,89.30
2019-01-31T15:13:09.557Z,90.10
2019-01-31T15:15:40.084Z,89.80
2019-01-31T15:18:10.906Z,90.00
2019-01-31T15:20:44.489Z,89.80
2019-01-31T15:23:15.072Z,90.00
2019-01-31T15:25:45.740Z,90.00
2019-01-31T15:28:16.369Z,89.80
2019-01-31T15:30:46.874Z,89.70
2019-01-31T15:33:20.841Z,90.00
2019-01-31T15:35:51.377Z,90.00
2019-01-31T15:38:22.033Z,89.60
2019-01-31T15:40:52.694Z,89.50
2019-01-31T15:43:23.668Z,89.30
2019-01-31T15:45:54.322Z,89.70
2019-01-31T15:48:24.876Z,89.60
2019-01-31T15:50:55.728Z,89.50
2019-01-31T15:53:26.360Z,89.20
2019-01-31T15:55:57.021Z,88.50
2019-01-31T15:58:27.739Z,89.00
2019-01-31T16:00:58.816Z,89.00
2019-01-31T16:03:29.488Z,89.00
2019-01-31T16:06:00.105Z,89.20
2019-01-31T16:08:30.657Z,89.50
2019-01-31T16:11:01.336Z,89.40
2019-01-31T16:13:31.891Z,89.20
2019-01-31T16:16:02.395Z,89.40
2019-01-31T16:18:32.900Z,89.60
2019-01-31T16:21:03.529Z,89.60
2019-01-31T16:23:34.061Z,89.60
2019-01-31T16:26:04.786Z,90.00
2019-01-31T16:28:35.418Z,89.20
2019-01-31T16:31:06.046Z,89.40
2019-01-31T16:33:36.633Z,89.50
2019-01-31T16:36:07.277Z,89.50
2019-01-31T16:38:37.995Z,89.60
2019-01-31T16:41:08.548Z,89.30
2019-01-31T16:43:39.224Z,89.00
2019-01-31T16:46:09.785Z,88.50
2019-01-31T16:48:40.377Z,89.40
2019-01-31T16:51:11.011Z,89.20
2019-01-31T16:53:41.669Z,88.30
2019-01-31T16:56:12.269Z,88.30
2019-01-31T16:58:43.047Z,88.00
2019-01-31T17:01:15.826Z,87.50
2019-01-31T17:03:45.951Z,87.70
2019-01-31T17:06:16.525Z,87.80
2019-01-31T17:08:47.124Z,87.10
2019-01-31T17:11:17.727Z,86.50
2019-01-31T17:13:48.380Z,86.60
2019-01-31T17:16:18.972Z,87.60
2019-01-31T17:18:50.821Z,87.90
2019-01-31T17:21:22.869Z,88.50
2019-01-31T17:23:53.418Z,88.50
2019-01-31T17:26:24.100Z,88.20
2019-01-31T17:28:54.773Z,88.60
2019-01-31T17:31:25.355Z,88.00
2019-01-31T17:33:57.052Z,87.80
2019-01-31T17:36:27.704Z,88.10
2019-01-31T17:38:58.336Z,87.80
2019-01-31T17:41:28.996Z,88.60
2019-01-31T17:43:59.614Z,89.50
2019-01-31T17:46:30.773Z,88.90
2019-01-31T17:49:01.469Z,89.80
2019-01-31T17:51:32.159Z,90.00
2019-01-31T17:54:02.824Z,89.80
2019-01-31T17:56:33.438Z,89.40
2019-01-31T17:59:05.806Z,89.90
2019-01-31T18:01:36.473Z,90.10
2019-01-31T18:04:07.172Z,90.00
2019-01-31T18:06:37.777Z,89.20
2019-01-31T18:09:10.328Z,89.20
2019-01-31T18:11:40.908Z,88.70
2019-01-31T18:14:11.494Z,88.50
2019-01-31T18:16:42.063Z,89.10
2019-01-31T18:19:12.713Z,89.20
2019-01-31T18:21:43.369Z,90.00
2019-01-31T18:24:13.930Z,89.80
2019-01-31T18:26:44.572Z,89.00
2019-01-31T18:29:15.324Z,89.00
2019-01-31T18:31:45.934Z,88.80
2019-01-31T18:34:16.532Z,89.60
2019-01-31T18:36:47.085Z,88.90
2019-01-31T18:39:17.764Z,89.90
2019-01-31T18:41:48.897Z,90.20
2019-01-31T18:44:19.466Z,90.10
2019-01-31T18:47:02.013Z,90.10
2019-01-31T18:49:42.082Z,90.10
2019-01-31T18:52:16.088Z,90.10
2019-01-31T18:54:46.780Z,90.40
2019-01-31T18:57:17.368Z,90.20
2019-01-31T18:59:48.052Z,90.20
2019-01-31T19:02:20.593Z,90.00
2019-01-31T19:04:51.359Z,89.90
2019-01-31T19:07:22.012Z,89.80
2019-01-31T19:09:52.607Z,89.60
2019-01-31T19:12:23.216Z,89.80
2019-01-31T19:14:54.552Z,89.80
2019-01-31T19:17:25.193Z,89.90
2019-01-31T19:19:55.796Z,89.50
2019-01-31T19:22:26.505Z,88.90
2019-01-31T19:24:57.081Z,88.80
2019-01-31T19:27:27.652Z,89.40
2019-01-31T19:29:58.410Z,89.20
2019-01-31T19:32:29.071Z,89.70
2019-01-31T19:35:00.195Z,89.30
2019-01-31T19:37:32.754Z,89.30
2019-01-31T19:40:04.101Z,89.60
2019-01-31T19:42:35.587Z,90.00
2019-01-31T19:45:09.291Z,89.40
2019-01-31T19:47:40.285Z,89.10
2019-01-31T19:50:13.139Z,88.90
2019-01-31T19:52:44.441Z,89.20
2019-01-31T19:55:15.107Z,89.30
2019-01-31T19:57:48.149Z,89.50
2019-01-31T20:00:22.047Z,89.00
2019-01-31T20:02:53.798Z,88.60
2019-01-31T20:05:25.422Z,88.70
2019-01-31T20:07:56.278Z,88.80
2019-01-31T20:10:27.960Z,88.80
2019-01-31T20:12:58.676Z,88.90
2019-01-31T20:15:30.298Z,89.80
2019-01-31T20:18:02.071Z,90.10
2019-01-31T20:20:32.722Z,90.20
2019-01-31T20:23:05.255Z,90.10
2019-01-31T20:25:35.834Z,90.10
2019-01-31T20:28:06.608Z,90.00
2019-01-31T20:30:39.002Z,89.70
2019-01-31T20:33:09.944Z,89.40
2019-01-31T20:35:40.933Z,89.10
2019-01-31T20:38:11.661Z,89.30
2019-01-31T20:40:43.561Z,89.50
2019-01-31T20:43:14.124Z,89.50
2019-01-31T20:45:44.883Z,89.30
2019-01-31T20:48:15.463Z,89.00
2019-01-31T20:50:46.442Z,88.90
2019-01-31T20:53:17.029Z,89.50
2019-01-31T20:55:47.724Z,89.60
2019-01-31T20:58:18.725Z,89.80
2019-01-31T21:00:49.562Z,89.70
2019-01-31T21:03:20.073Z,89.80
2019-01-31T21:05:50.602Z,90.00
2019-01-31T21:08:21.134Z,89.40
2019-01-31T21:10:51.734Z,89.10
2019-01-31T21:13:22.500Z,89.10
2019-01-31T21:15:53.258Z,89.30
2019-01-31T21:18:23.985Z,89.20
2019-01-31T21:20:55.782Z,89.30
2019-01-31T21:23:26.490Z,90.00
2019-01-31T21:25:57.079Z,89.60
2019-01-31T21:28:28.322Z,89.40
2019-01-31T21:30:59.037Z,89.40
2019-01-31T21:33:30.095Z,89.60
2019-01-31T21:36:01.083Z,89.40
2019-01-31T21:38:31.815Z,89.40
2019-01-31T21:41:02.498Z,89.10
2019-01-31T21:43:33.138Z,89.20
2019-01-31T21:46:03.808Z,89.20
2019-01-31T21:48:34.417Z,89.60
2019-01-31T21:51:05.343Z,89.40
2019-01-31T21:53:36.657Z,89.30
2019-01-31T21:56:07.475Z,89.60
2019-01-31T21:58:40.388Z,89.40
2019-01-31T22:01:11.012Z,89.10
2019-01-31T22:03:41.533Z,88.60
2019-01-31T22:06:22.154Z,88.90
2019-01-31T22:08:44.432Z,88.40
2019-01-31T22:11:15.028Z,88.60
2019-01-31T22:13:45.632Z,88.70
2019-01-31T22:16:16.244Z,88.60
2019-01-31T22:18:46.904Z,88.70
2019-01-31T22:21:18.069Z,88.50
2019-01-31T22:23:51.989Z,88.70
2019-01-31T22:26:23.176Z,88.40
2019-01-31T22:29:03.068Z,88.70
2019-01-31T22:31:34.211Z,88.80
2019-01-31T22:34:07.348Z,88.50
2019-01-31T22:36:38.429Z,88.40
2019-01-31T22:39:09.688Z,89.00
2019-01-31T22:41:40.295Z,89.10
2019-01-31T22:44:10.824Z,89.20
2019-01-31T22:46:41.420Z,88.60
2019-01-31T22:49:11.919Z,88.80
2019-01-31T22:51:42.512Z,88.70
2019-01-31T22:54:13.156Z,88.90
2019-01-31T22:56:43.701Z,88.60
2019-01-31T22:59:14.217Z,88.70
2019-01-31T23:01:48.330Z,89.80
2019-01-31T23:04:18.868Z,89.50
2019-01-31T23:06:49.584Z,89.10
2019-01-31T23:09:20.118Z,89.40
2019-01-31T23:11:50.732Z,88.90
2019-01-31T23:14:21.266Z,88.30
2019-01-31T23:16:51.850Z,88.90
2019-01-31T23:19:22.457Z,88.40
2019-01-31T23:21:53.094Z,88.50
2019-01-31T23:24:23.805Z,88.80
2019-01-31T23:26:54.495Z,89.00
2019-01-31T23:29:25.149Z,89.30
2019-01-31T23:31:55.716Z,89.60
2019-01-31T23:34:26.380Z,90.00
2019-01-31T23:36:56.888Z,90.10
2019-01-31T23:39:27.539Z,90.20
2019-01-31T23:41:58.072Z,90.10
2019-01-31T23:44:28.680Z,90.10
2019-01-31T23:46:59.237Z,90.00
2019-01-31T23:49:29.802Z,90.00
2019-01-31T23:52:00.332Z,89.50
2019-01-31T23:54:30.880Z,89.60
2019-01-31T23:57:01.510Z,89.60
2019-01-31T23:59:32.117Z,90.00
